sensor_id;sensor_type;location;lat;lon;timestamp;temperature;humidity
25360;DHT22;13311;51.386;0.016;2023-03-21T00:01:21;13.20;99.90
25360;DHT22;13311;51.386;0.016;2023-03-21T00:06:22;13.20;99.90
25360;DHT22;13311;51.386;0.016;2023-03-21T00:11:23;13.20;99.90
25360;DHT22;13311;51.386;0.016;2023-03-21T00:16:23;13.10;99.90
25360;DHT22;13311;51.386;0.016;2023-03-21T00:21:25;13.10;99.90
25360;DHT22;13311;51.386;0.016;2023-03-21T00:26:32;13.10;99.90
25360;DHT22;13311;51.386;0.016;2023-03-21T00:31:33;13.10;99.90
25360;DHT22;13311;51.386;0.016;2023-03-21T00:36:33;13.10;99.90
25360;DHT22;13311;51.386;0.016;2023-03-21T00:41:34;13.10;99.90
25360;DHT22;13311;51.386;0.016;2023-03-21T00:46:35;13.20;99.90
25360;DHT22;13311;51.386;0.016;2023-03-21T00:51:36;13.10;99.90
25360;DHT22;13311;51.386;0.016;2023-03-21T00:56:37;13.00;99.90
25360;DHT22;13311;51.386;0.016;2023-03-21T01:01:38;13.10;99.90
25360;DHT22;13311;51.386;0.016;2023-03-21T01:06:40;13.00;99.90
25360;DHT22;13311;51.386;0.016;2023-03-21T01:11:42;13.00;99.90
25360;DHT22;13311;51.386;0.016;2023-03-21T01:16:43;13.00;99.90
25360;DHT22;13311;51.386;0.016;2023-03-21T01:21:44;13.00;99.90
25360;DHT22;13311;51.386;0.016;2023-03-21T01:26:45;13.10;99.90
25360;DHT22;13311;51.386;0.016;2023-03-21T01:31:46;13.10;99.90
25360;DHT22;13311;51.386;0.016;2023-03-21T01:36:47;13.10;99.90
25360;DHT22;13311;51.386;0.016;2023-03-21T01:41:48;13.20;99.90
25360;DHT22;13311;51.386;0.016;2023-03-21T01:46:50;13.20;99.90
25360;DHT22;13311;51.386;0.016;2023-03-21T01:51:57;13.20;99.90
25360;DHT22;13311;51.386;0.016;2023-03-21T01:57:04;13.20;99.90
25360;DHT22;13311;51.386;0.016;2023-03-21T02:02:21;13.10;99.90
25360;DHT22;13311;51.386;0.016;2023-03-21T02:07:29;13.10;99.90
25360;DHT22;13311;51.386;0.016;2023-03-21T02:12:35;13.20;99.90
25360;DHT22;13311;51.386;0.016;2023-03-21T02:17:44;13.30;99.90
25360;DHT22;13311;51.386;0.016;2023-03-21T02:28:55;13.20;99.90
25360;DHT22;13311;51.386;0.016;2023-03-21T02:34:10;13.10;99.90
25360;DHT22;13311;51.386;0.016;2023-03-21T02:44:57;13.10;99.90
25360;DHT22;13311;51.386;0.016;2023-03-21T02:50:15;13.10;99.90
25360;DHT22;13311;51.386;0.016;2023-03-21T02:55:27;13.10;99.90
25360;DHT22;13311;51.386;0.016;2023-03-21T03:00:32;13.10;99.90
25360;DHT22;13311;51.386;0.016;2023-03-21T03:05:39;13.20;99.90
25360;DHT22;13311;51.386;0.016;2023-03-21T03:10:59;13.10;99.90
25360;DHT22;13311;51.386;0.016;2023-03-21T03:27:11;13.30;99.90
25360;DHT22;13311;51.386;0.016;2023-03-21T03:32:30;13.20;99.90
25360;DHT22;13311;51.386;0.016;2023-03-21T03:37:37;13.20;99.90
25360;DHT22;13311;51.386;0.016;2023-03-21T03:42:45;13.10;99.90
25360;DHT22;13311;51.386;0.016;2023-03-21T03:48:03;13.10;99.90
25360;DHT22;13311;51.386;0.016;2023-03-21T03:53:26;12.90;99.90
25360;DHT22;13311;51.386;0.016;2023-03-21T03:58:30;12.70;99.90
25360;DHT22;13311;51.386;0.016;2023-03-21T04:03:32;12.70;99.90
25360;DHT22;13311;51.386;0.016;2023-03-21T04:08:35;12.60;99.90
25360;DHT22;13311;51.386;0.016;2023-03-21T04:13:37;12.50;99.90
25360;DHT22;13311;51.386;0.016;2023-03-21T04:18:37;12.50;99.90
25360;DHT22;13311;51.386;0.016;2023-03-21T04:23:41;12.60;99.90
25360;DHT22;13311;51.386;0.016;2023-03-21T04:28:42;12.60;99.90
25360;DHT22;13311;51.386;0.016;2023-03-21T04:33:43;12.50;99.90
25360;DHT22;13311;51.386;0.016;2023-03-21T04:38:44;12.50;99.90
25360;DHT22;13311;51.386;0.016;2023-03-21T04:43:47;12.40;99.90
25360;DHT22;13311;51.386;0.016;2023-03-21T04:48:48;12.20;99.90
25360;DHT22;13311;51.386;0.016;2023-03-21T04:53:49;12.50;99.90
25360;DHT22;13311;51.386;0.016;2023-03-21T04:58:51;12.50;99.90
25360;DHT22;13311;51.386;0.016;2023-03-21T05:03:52;12.50;99.90
25360;DHT22;13311;51.386;0.016;2023-03-21T05:08:54;12.50;99.90
25360;DHT22;13311;51.386;0.016;2023-03-21T05:13:59;12.40;99.90
25360;DHT22;13311;51.386;0.016;2023-03-21T05:19:00;12.40;99.90
25360;DHT22;13311;51.386;0.016;2023-03-21T05:24:05;12.10;99.90
25360;DHT22;13311;51.386;0.016;2023-03-21T05:29:11;12.10;99.90
25360;DHT22;13311;51.386;0.016;2023-03-21T05:34:13;12.00;99.90
25360;DHT22;13311;51.386;0.016;2023-03-21T05:39:13;11.90;99.90
25360;DHT22;13311;51.386;0.016;2023-03-21T05:44:14;11.90;99.90
25360;DHT22;13311;51.386;0.016;2023-03-21T05:49:15;11.70;99.90
25360;DHT22;13311;51.386;0.016;2023-03-21T05:54:16;11.70;99.90
25360;DHT22;13311;51.386;0.016;2023-03-21T05:59:17;11.60;99.90
25360;DHT22;13311;51.386;0.016;2023-03-21T06:04:18;11.70;99.90
25360;DHT22;13311;51.386;0.016;2023-03-21T06:09:19;11.60;99.90
25360;DHT22;13311;51.386;0.016;2023-03-21T06:14:22;11.60;99.90
25360;DHT22;13311;51.386;0.016;2023-03-21T06:19:24;11.70;99.90
25360;DHT22;13311;51.386;0.016;2023-03-21T06:24:26;11.70;99.90
25360;DHT22;13311;51.386;0.016;2023-03-21T06:29:26;11.70;99.90
25360;DHT22;13311;51.386;0.016;2023-03-21T06:34:27;11.80;99.90
25360;DHT22;13311;51.386;0.016;2023-03-21T06:39:28;11.90;99.90
25360;DHT22;13311;51.386;0.016;2023-03-21T06:44:30;11.90;99.90
25360;DHT22;13311;51.386;0.016;2023-03-21T06:49:31;11.80;99.90
25360;DHT22;13311;51.386;0.016;2023-03-21T06:54:32;11.80;99.90
25360;DHT22;13311;51.386;0.016;2023-03-21T06:59:33;11.90;99.90
25360;DHT22;13311;51.386;0.016;2023-03-21T07:04:33;11.90;99.90
25360;DHT22;13311;51.386;0.016;2023-03-21T07:09:34;12.00;99.90
25360;DHT22;13311;51.386;0.016;2023-03-21T07:14:36;12.10;99.90
25360;DHT22;13311;51.386;0.016;2023-03-21T07:19:36;12.00;99.90
25360;DHT22;13311;51.386;0.016;2023-03-21T07:24:37;12.10;99.90
25360;DHT22;13311;51.386;0.016;2023-03-21T07:29:38;12.30;99.90
25360;DHT22;13311;51.386;0.016;2023-03-21T07:34:38;12.30;99.90
25360;DHT22;13311;51.386;0.016;2023-03-21T07:39:39;12.20;99.90
25360;DHT22;13311;51.386;0.016;2023-03-21T07:44:40;12.20;99.90
25360;DHT22;13311;51.386;0.016;2023-03-21T07:49:42;12.20;99.90
25360;DHT22;13311;51.386;0.016;2023-03-21T07:54:42;12.20;99.90
25360;DHT22;13311;51.386;0.016;2023-03-21T07:59:43;12.20;99.90
25360;DHT22;13311;51.386;0.016;2023-03-21T08:04:44;12.40;99.90
25360;DHT22;13311;51.386;0.016;2023-03-21T08:09:45;12.50;99.90
25360;DHT22;13311;51.386;0.016;2023-03-21T08:14:45;12.40;99.90
25360;DHT22;13311;51.386;0.016;2023-03-21T08:19:46;12.40;99.90
25360;DHT22;13311;51.386;0.016;2023-03-21T08:24:47;12.40;99.90
25360;DHT22;13311;51.386;0.016;2023-03-21T08:29:48;12.70;99.90
25360;DHT22;13311;51.386;0.016;2023-03-21T08:34:48;12.90;99.90
25360;DHT22;13311;51.386;0.016;2023-03-21T08:39:49;13.10;99.90
25360;DHT22;13311;51.386;0.016;2023-03-21T08:44:50;13.30;99.90
25360;DHT22;13311;51.386;0.016;2023-03-21T08:49:51;13.40;99.90
25360;DHT22;13311;51.386;0.016;2023-03-21T08:54:52;13.40;99.90
25360;DHT22;13311;51.386;0.016;2023-03-21T08:59:53;13.50;99.90
25360;DHT22;13311;51.386;0.016;2023-03-21T09:04:54;13.50;99.90
25360;DHT22;13311;51.386;0.016;2023-03-21T09:09:58;13.70;99.90
25360;DHT22;13311;51.386;0.016;2023-03-21T09:14:59;13.90;99.90
25360;DHT22;13311;51.386;0.016;2023-03-21T09:20:01;13.80;99.90
25360;DHT22;13311;51.386;0.016;2023-03-21T09:25:10;13.90;99.90
25360;DHT22;13311;51.386;0.016;2023-03-21T09:30:15;14.20;99.90
25360;DHT22;13311;51.386;0.016;2023-03-21T09:35:17;14.40;99.90
25360;DHT22;13311;51.386;0.016;2023-03-21T09:40:26;14.90;99.90
25360;DHT22;13311;51.386;0.016;2023-03-21T09:50:51;15.40;99.70
25360;DHT22;13311;51.386;0.016;2023-03-21T09:55:52;15.50;99.60
25360;DHT22;13311;51.386;0.016;2023-03-21T10:01:02;15.60;98.60
25360;DHT22;13311;51.386;0.016;2023-03-21T10:06:12;15.70;99.00
25360;DHT22;13311;51.386;0.016;2023-03-21T10:11:24;15.60;99.20
25360;DHT22;13311;51.386;0.016;2023-03-21T10:16:34;15.60;99.40
25360;DHT22;13311;51.386;0.016;2023-03-21T10:21:38;15.70;99.40
25360;DHT22;13311;51.386;0.016;2023-03-21T10:26:43;15.60;99.90
25360;DHT22;13311;51.386;0.016;2023-03-21T10:31:45;15.60;99.70
25360;DHT22;13311;51.386;0.016;2023-03-21T10:36:47;15.60;99.10
25360;DHT22;13311;51.386;0.016;2023-03-21T10:41:48;15.60;99.90
25360;DHT22;13311;51.386;0.016;2023-03-21T10:46:57;15.60;99.80
25360;DHT22;13311;51.386;0.016;2023-03-21T10:52:07;15.70;99.80
25360;DHT22;13311;51.386;0.016;2023-03-21T10:57:20;15.70;99.30
25360;DHT22;13311;51.386;0.016;2023-03-21T11:02:30;15.60;99.00
25360;DHT22;13311;51.386;0.016;2023-03-21T11:07:36;15.70;98.80
25360;DHT22;13311;51.386;0.016;2023-03-21T11:12:39;15.70;98.60
25360;DHT22;13311;51.386;0.016;2023-03-21T11:17:40;15.80;98.00
25360;DHT22;13311;51.386;0.016;2023-03-21T11:22:42;15.70;98.00
25360;DHT22;13311;51.386;0.016;2023-03-21T11:27:48;15.90;98.60
25360;DHT22;13311;51.386;0.016;2023-03-21T11:32:54;16.10;98.00
25360;DHT22;13311;51.386;0.016;2023-03-21T11:37:56;16.30;97.90
25360;DHT22;13311;51.386;0.016;2023-03-21T11:43:41;16.60;97.80
25360;DHT22;13311;51.386;0.016;2023-03-21T11:48:27;16.80;97.80
25360;DHT22;13311;51.386;0.016;2023-03-21T11:59:15;17.00;96.90
25360;DHT22;13311;51.386;0.016;2023-03-21T12:04:50;17.00;96.50
25360;DHT22;13311;51.386;0.016;2023-03-21T12:16:04;16.80;96.90
25360;DHT22;13311;51.386;0.016;2023-03-21T12:21:19;16.70;96.80
25360;DHT22;13311;51.386;0.016;2023-03-21T12:26:55;16.60;97.20
25360;DHT22;13311;51.386;0.016;2023-03-21T12:43:45;16.50;97.50
25360;DHT22;13311;51.386;0.016;2023-03-21T12:48:48;16.50;97.50
25360;DHT22;13311;51.386;0.016;2023-03-21T12:54:24;16.30;97.10
25360;DHT22;13311;51.386;0.016;2023-03-21T12:59:49;16.10;97.50
25360;DHT22;13311;51.386;0.016;2023-03-21T13:10:20;16.10;97.20
25360;DHT22;13311;51.386;0.016;2023-03-21T13:20:58;16.00;97.00
25360;DHT22;13311;51.386;0.016;2023-03-21T13:26:02;16.20;97.70
25360;DHT22;13311;51.386;0.016;2023-03-21T13:31:19;16.30;96.40
25360;DHT22;13311;51.386;0.016;2023-03-21T13:36:24;16.40;97.00
25360;DHT22;13311;51.386;0.016;2023-03-21T13:41:42;16.50;95.50
25360;DHT22;13311;51.386;0.016;2023-03-21T13:47:03;16.60;96.60
25360;DHT22;13311;51.386;0.016;2023-03-21T13:57:21;16.70;95.90
25360;DHT22;13311;51.386;0.016;2023-03-21T14:02:33;16.60;95.10
25360;DHT22;13311;51.386;0.016;2023-03-21T14:07:38;16.60;95.70
25360;DHT22;13311;51.386;0.016;2023-03-21T14:12:41;16.70;95.40
25360;DHT22;13311;51.386;0.016;2023-03-21T14:17:54;16.60;95.10
25360;DHT22;13311;51.386;0.016;2023-03-21T14:22:59;16.60;95.80
25360;DHT22;13311;51.386;0.016;2023-03-21T14:33:27;16.70;96.20
25360;DHT22;13311;51.386;0.016;2023-03-21T14:38:34;16.50;95.30
25360;DHT22;13311;51.386;0.016;2023-03-21T14:43:36;16.60;95.30
25360;DHT22;13311;51.386;0.016;2023-03-21T14:48:37;16.70;94.80
25360;DHT22;13311;51.386;0.016;2023-03-21T14:53:40;16.70;95.50
25360;DHT22;13311;51.386;0.016;2023-03-21T14:58:43;16.90;95.00
25360;DHT22;13311;51.386;0.016;2023-03-21T15:03:45;16.80;94.80
25360;DHT22;13311;51.386;0.016;2023-03-21T15:08:54;16.90;95.10
25360;DHT22;13311;51.386;0.016;2023-03-21T15:13:58;16.90;94.10
25360;DHT22;13311;51.386;0.016;2023-03-21T15:19:01;16.90;95.30
25360;DHT22;13311;51.386;0.016;2023-03-21T15:24:16;16.90;95.10
25360;DHT22;13311;51.386;0.016;2023-03-21T15:29:23;16.80;94.00
25360;DHT22;13311;51.386;0.016;2023-03-21T15:34:27;16.80;93.30
25360;DHT22;13311;51.386;0.016;2023-03-21T15:39:28;16.60;93.10
25360;DHT22;13311;51.386;0.016;2023-03-21T15:44:30;16.60;94.20
25360;DHT22;13311;51.386;0.016;2023-03-21T15:49:32;16.50;94.20
25360;DHT22;13311;51.386;0.016;2023-03-21T15:54:49;16.40;93.40
25360;DHT22;13311;51.386;0.016;2023-03-21T16:05:29;16.20;94.00
25360;DHT22;13311;51.386;0.016;2023-03-21T16:10:36;16.20;94.00
25360;DHT22;13311;51.386;0.016;2023-03-21T16:15:37;16.10;94.20
25360;DHT22;13311;51.386;0.016;2023-03-21T16:20:42;16.00;93.60
25360;DHT22;13311;51.386;0.016;2023-03-21T16:25:44;15.90;94.00
25360;DHT22;13311;51.386;0.016;2023-03-21T16:30:46;15.70;93.10
25360;DHT22;13311;51.386;0.016;2023-03-21T16:35:47;15.60;94.40
25360;DHT22;13311;51.386;0.016;2023-03-21T16:40:47;15.80;94.70
25360;DHT22;13311;51.386;0.016;2023-03-21T16:45:50;15.70;94.70
25360;DHT22;13311;51.386;0.016;2023-03-21T16:50:51;15.70;94.30
25360;DHT22;13311;51.386;0.016;2023-03-21T16:55:51;15.60;94.80
25360;DHT22;13311;51.386;0.016;2023-03-21T17:00:53;15.70;94.40
25360;DHT22;13311;51.386;0.016;2023-03-21T17:05:54;15.60;94.30
25360;DHT22;13311;51.386;0.016;2023-03-21T17:10:55;15.70;96.40
25360;DHT22;13311;51.386;0.016;2023-03-21T17:15:55;15.60;94.90
25360;DHT22;13311;51.386;0.016;2023-03-21T17:20:56;15.40;94.30
25360;DHT22;13311;51.386;0.016;2023-03-21T17:25:57;15.40;94.40
25360;DHT22;13311;51.386;0.016;2023-03-21T17:30:57;15.20;94.70
25360;DHT22;13311;51.386;0.016;2023-03-21T17:35:58;15.30;95.50
25360;DHT22;13311;51.386;0.016;2023-03-21T17:40:59;15.50;94.00
25360;DHT22;13311;51.386;0.016;2023-03-21T17:46:00;15.30;93.40
25360;DHT22;13311;51.386;0.016;2023-03-21T17:51:01;15.30;93.90
25360;DHT22;13311;51.386;0.016;2023-03-21T17:56:02;15.40;94.60
25360;DHT22;13311;51.386;0.016;2023-03-21T18:01:03;15.30;94.60
25360;DHT22;13311;51.386;0.016;2023-03-21T18:06:04;15.30;93.70
25360;DHT22;13311;51.386;0.016;2023-03-21T18:11:05;15.20;95.10
25360;DHT22;13311;51.386;0.016;2023-03-21T18:16:07;15.20;94.20
25360;DHT22;13311;51.386;0.016;2023-03-21T18:21:10;15.20;95.50
25360;DHT22;13311;51.386;0.016;2023-03-21T18:26:14;15.10;94.60
25360;DHT22;13311;51.386;0.016;2023-03-21T18:31:18;14.90;94.30
25360;DHT22;13311;51.386;0.016;2023-03-21T18:36:20;14.80;94.70
25360;DHT22;13311;51.386;0.016;2023-03-21T18:41:22;14.80;95.20
25360;DHT22;13311;51.386;0.016;2023-03-21T18:46:23;14.70;95.00
25360;DHT22;13311;51.386;0.016;2023-03-21T18:51:23;14.60;94.20
25360;DHT22;13311;51.386;0.016;2023-03-21T18:56:24;14.50;95.10
25360;DHT22;13311;51.386;0.016;2023-03-21T19:01:25;14.50;95.20
25360;DHT22;13311;51.386;0.016;2023-03-21T19:06:26;14.50;95.40
25360;DHT22;13311;51.386;0.016;2023-03-21T19:11:27;14.50;95.20
25360;DHT22;13311;51.386;0.016;2023-03-21T19:16:28;14.50;95.10
25360;DHT22;13311;51.386;0.016;2023-03-21T19:21:29;14.40;94.60
25360;DHT22;13311;51.386;0.016;2023-03-21T19:26:29;14.20;95.10
25360;DHT22;13311;51.386;0.016;2023-03-21T19:31:30;14.40;95.40
25360;DHT22;13311;51.386;0.016;2023-03-21T19:36:31;14.30;95.20
25360;DHT22;13311;51.386;0.016;2023-03-21T19:41:32;14.00;95.50
25360;DHT22;13311;51.386;0.016;2023-03-21T19:46:33;14.10;95.70
25360;DHT22;13311;51.386;0.016;2023-03-21T19:51:34;13.90;96.00
25360;DHT22;13311;51.386;0.016;2023-03-21T19:56:34;13.80;96.10
25360;DHT22;13311;51.386;0.016;2023-03-21T20:01:36;13.70;96.50
25360;DHT22;13311;51.386;0.016;2023-03-21T20:06:36;13.60;96.80
25360;DHT22;13311;51.386;0.016;2023-03-21T20:11:38;13.60;97.10
25360;DHT22;13311;51.386;0.016;2023-03-21T20:16:39;13.40;97.20
25360;DHT22;13311;51.386;0.016;2023-03-21T20:21:40;13.40;97.60
25360;DHT22;13311;51.386;0.016;2023-03-21T20:26:41;13.30;97.60
25360;DHT22;13311;51.386;0.016;2023-03-21T20:31:44;13.20;97.90
25360;DHT22;13311;51.386;0.016;2023-03-21T20:36:44;13.10;98.10
25360;DHT22;13311;51.386;0.016;2023-03-21T20:41:45;13.20;98.10
25360;DHT22;13311;51.386;0.016;2023-03-21T20:46:46;13.20;98.30
25360;DHT22;13311;51.386;0.016;2023-03-21T20:51:47;13.20;98.40
25360;DHT22;13311;51.386;0.016;2023-03-21T20:56:49;13.30;98.00
25360;DHT22;13311;51.386;0.016;2023-03-21T21:01:50;13.50;97.70
25360;DHT22;13311;51.386;0.016;2023-03-21T21:06:51;13.30;97.90
25360;DHT22;13311;51.386;0.016;2023-03-21T21:11:52;13.30;97.90
25360;DHT22;13311;51.386;0.016;2023-03-21T21:16:53;13.30;97.80
25360;DHT22;13311;51.386;0.016;2023-03-21T21:21:54;13.30;98.10
25360;DHT22;13311;51.386;0.016;2023-03-21T21:26:54;13.30;98.10
25360;DHT22;13311;51.386;0.016;2023-03-21T21:31:55;13.30;98.00
25360;DHT22;13311;51.386;0.016;2023-03-21T21:36:56;13.30;98.10
25360;DHT22;13311;51.386;0.016;2023-03-21T21:41:56;13.40;98.20
25360;DHT22;13311;51.386;0.016;2023-03-21T21:46:57;13.50;97.70
25360;DHT22;13311;51.386;0.016;2023-03-21T21:51:58;13.30;97.50
25360;DHT22;13311;51.386;0.016;2023-03-21T21:56:59;13.40;97.60
25360;DHT22;13311;51.386;0.016;2023-03-21T22:02:00;13.50;97.50
25360;DHT22;13311;51.386;0.016;2023-03-21T22:07:01;13.50;97.40
25360;DHT22;13311;51.386;0.016;2023-03-21T22:12:05;13.50;97.30
25360;DHT22;13311;51.386;0.016;2023-03-21T22:17:06;13.50;97.60
25360;DHT22;13311;51.386;0.016;2023-03-21T22:22:13;13.50;97.70
25360;DHT22;13311;51.386;0.016;2023-03-21T22:27:15;13.40;98.00
25360;DHT22;13311;51.386;0.016;2023-03-21T22:32:16;13.40;98.10
25360;DHT22;13311;51.386;0.016;2023-03-21T22:37:18;13.30;98.20
25360;DHT22;13311;51.386;0.016;2023-03-21T22:42:19;13.30;98.40
25360;DHT22;13311;51.386;0.016;2023-03-21T22:47:19;13.50;98.40
25360;DHT22;13311;51.386;0.016;2023-03-21T22:52:20;13.60;98.10
25360;DHT22;13311;51.386;0.016;2023-03-21T22:57:21;13.70;98.00
25360;DHT22;13311;51.386;0.016;2023-03-21T23:02:22;13.60;98.40
25360;DHT22;13311;51.386;0.016;2023-03-21T23:07:22;13.60;98.30
25360;DHT22;13311;51.386;0.016;2023-03-21T23:12:23;13.60;98.20
25360;DHT22;13311;51.386;0.016;2023-03-21T23:17:25;13.50;98.30
25360;DHT22;13311;51.386;0.016;2023-03-21T23:22:30;13.60;98.20
25360;DHT22;13311;51.386;0.016;2023-03-21T23:27:32;13.70;98.00
25360;DHT22;13311;51.386;0.016;2023-03-21T23:32:37;13.70;98.10
25360;DHT22;13311;51.386;0.016;2023-03-21T23:37:37;13.30;98.30
25360;DHT22;13311;51.386;0.016;2023-03-21T23:42:41;13.40;98.40
25360;DHT22;13311;51.386;0.016;2023-03-21T23:47:42;13.50;98.10
25360;DHT22;13311;51.386;0.016;2023-03-21T23:52:43;13.50;98.20
25360;DHT22;13311;51.386;0.016;2023-03-21T23:57:44;13.60;97.60
